Time;durP1;ratioP1;P1;durP2;ratioP2;P2;SDS_P1;SDS_P2;PMS_P1;PMS_P2;Temp;Humidity;BMP_temperature;BMP_pressure;BME280_temperature;BME280_humidity;BME280_pressure;Samples;Min_cycle;Max_cycle;Signal;HPM_P1;HPM_P2
2021/09/10 00:00:09;;;;;;;3.33;3.15;;;;;;;13.63;86.56;99811.56;6181090;23;20013;-72
2021/09/10 00:02:38;;;;;;;2.97;2.75;;;;;;;13.49;86.28;99805.47;6181019;23;20464;-73
2021/09/10 00:05:06;;;;;;;3.85;2.92;;;;;;;13.40;86.68;99806.09;6181076;23;20021;-72
2021/09/10 00:07:32;;;;;;;2.65;2.53;;;;;;;13.54;87.03;99811.25;6179603;23;20040;-73
2021/09/10 00:09:58;;;;;;;4.80;3.45;;;;;;;13.50;86.84;99801.91;6181169;23;20020;-71
2021/09/10 00:12:24;;;;;;;3.95;3.60;;;;;;;13.55;87.30;99806.81;6180935;23;20017;-73
2021/09/10 00:14:50;;;;;;;3.75;3.45;;;;;;;13.57;87.02;99808.41;6181229;23;20028;-71
2021/09/10 00:17:16;;;;;;;4.43;3.28;;;;;;;13.58;87.17;99807.44;6181281;23;20024;-72
2021/09/10 00:19:42;;;;;;;4.45;4.15;;;;;;;13.54;87.16;99806.00;6179294;23;20060;-72
2021/09/10 00:22:07;;;;;;;2.80;2.60;;;;;;;13.49;87.47;99809.84;6180947;23;20024;-72
2021/09/10 00:24:34;;;;;;;8.48;3.78;;;;;;;13.46;87.58;99805.66;6179336;23;20017;-72
2021/09/10 00:27:00;;;;;;;6.63;2.95;;;;;;;13.40;87.65;99807.84;6179558;23;20021;-71
2021/09/10 00:29:26;;;;;;;3.60;3.38;;;;;;;13.39;87.90;99807.00;6154465;23;20099;-72
2021/09/10 00:32:08;;;;;;;2.78;2.67;;;;;;;13.43;88.00;99802.41;6181664;23;20075;-72
2021/09/10 00:34:33;;;;;;;4.07;1.70;;;;;;;13.42;87.95;99812.06;6180849;23;20017;-73
2021/09/10 00:36:59;;;;;;;3.70;3.45;;;;;;;13.46;87.96;99803.03;6181151;23;20028;-72
2021/09/10 00:39:25;;;;;;;3.75;3.55;;;;;;;13.56;87.89;99798.00;6180963;23;20017;-71
2021/09/10 00:41:51;;;;;;;3.85;3.63;;;;;;;13.68;87.63;99805.03;6181270;23;20139;-72
2021/09/10 00:44:17;;;;;;;6.38;3.67;;;;;;;13.73;87.36;99796.84;6181242;23;20075;-73
2021/09/10 00:46:43;;;;;;;4.32;3.58;;;;;;;13.72;87.37;99800.41;6179407;23;20024;-72
2021/09/10 00:49:09;;;;;;;3.38;3.17;;;;;;;13.58;87.38;99788.25;6181138;23;20020;-73
2021/09/10 00:51:35;;;;;;;2.42;2.30;;;;;;;13.60;87.72;99802.13;6154562;23;20025;-73
2021/09/10 00:54:01;;;;;;;3.67;3.47;;;;;;;13.60;87.29;99790.78;6181471;23;20047;-74
2021/09/10 00:56:27;;;;;;;4.30;4.00;;;;;;;13.56;87.58;99793.59;6180326;23;20013;-75
2021/09/10 00:58:56;;;;;;;5.60;4.32;;;;;;;13.51;87.13;99798.31;6182242;23;20017;-74
2021/09/10 01:01:23;;;;;;;3.70;3.50;;;;;;;13.48;87.74;99806.38;6180348;23;20017;-74
2021/09/10 01:03:49;;;;;;;3.88;3.55;;;;;;;13.45;87.88;99803.13;6180972;23;20039;-74
2021/09/10 01:06:15;;;;;;;4.15;3.85;;;;;;;13.35;88.05;99787.19;6179636;23;20460;-73
2021/09/10 01:08:41;;;;;;;9.65;3.85;;;;;;;13.45;88.09;99809.22;6179588;23;20027;-74
2021/09/10 01:11:07;;;;;;;5.40;3.42;;;;;;;13.52;87.93;99801.78;6181918;23;20408;-75
2021/09/10 01:13:33;;;;;;;7.22;4.00;;;;;;;13.51;87.81;99803.56;6191055;23;20079;-75
2021/09/10 01:16:00;;;;;;;2.80;2.67;;;;;;;13.52;87.89;99802.63;6193823;23;20024;-74
2021/09/10 01:18:26;;;;;;;3.70;3.40;;;;;;;13.56;87.62;99801.47;6184304;23;20013;-73
2021/09/10 01:20:52;;;;;;;3.88;3.58;;;;;;;13.61;87.94;99792.47;6182435;23;20032;-74
2021/09/10 01:23:18;;;;;;;3.95;3.65;;;;;;;13.65;87.53;99794.75;6183397;23;20013;-73
2021/09/10 01:25:44;;;;;;;3.75;3.40;;;;;;;13.67;87.60;99785.00;6184456;23;20037;-73
2021/09/10 01:28:10;;;;;;;7.32;4.32;;;;;;;13.64;87.38;99789.63;6184181;23;20116;-73
2021/09/10 01:30:36;;;;;;;8.15;4.50;;;;;;;13.62;87.57;99783.63;6181274;23;20017;-73
2021/09/10 01:33:03;;;;;;;4.10;3.72;;;;;;;13.66;87.60;99783.31;6181934;23;20025;-72
2021/09/10 01:35:29;;;;;;;4.53;4.05;;;;;;;13.72;87.57;99779.44;6182468;23;20040;-74
2021/09/10 01:37:55;;;;;;;4.45;4.25;;;;;;;13.68;87.75;99772.75;6182872;23;20464;-73
2021/09/10 01:40:21;;;;;;;3.08;2.88;;;;;;;13.71;87.52;99777.78;6182540;23;20554;-72
2021/09/10 01:42:47;;;;;;;3.42;3.13;;;;;;;13.75;87.66;99779.22;6182792;23;20021;-72
2021/09/10 01:45:13;;;;;;;3.47;3.28;;;;;;;13.79;87.33;99780.69;6180981;23;20487;-73
2021/09/10 01:47:40;;;;;;;4.30;3.90;;;;;;;13.81;87.17;99773.53;6182305;23;20098;-73
2021/09/10 01:50:16;;;;;;;4.40;4.10;;;;;;;13.89;86.90;99776.47;6181062;23;20470;-74
2021/09/10 01:52:42;;;;;;;3.72;3.53;;;;;;;13.90;86.73;99772.94;6181970;23;20412;-72
2021/09/10 01:55:09;;;;;;;3.03;2.90;;;;;;;13.94;86.73;99790.13;6182512;23;20403;-72
2021/09/10 01:57:35;;;;;;;2.88;2.67;;;;;;;13.97;86.68;99779.44;6182179;23;20461;-73
2021/09/10 02:00:01;;;;;;;4.15;3.75;;;;;;;13.97;86.59;99787.31;6182417;23;20017;-73
2021/09/10 02:02:32;;;;;;;3.65;3.55;;;;;;;13.98;86.63;99765.34;6180639;23;21979;-73
2021/09/10 02:04:58;;;;;;;4.18;3.85;;;;;;;14.03;86.45;99779.00;6181225;23;20064;-73
2021/09/10 02:07:24;;;;;;;5.40;3.50;;;;;;;14.05;86.25;99777.09;6183279;23;20108;-73
2021/09/10 02:09:50;;;;;;;3.97;3.70;;;;;;;14.08;86.34;99776.88;6181556;23;20448;-72
2021/09/10 02:12:16;;;;;;;5.75;3.53;;;;;;;14.12;86.06;99767.00;6183353;23;20017;-75
2021/09/10 02:14:42;;;;;;;3.80;3.58;;;;;;;14.04;86.36;99764.91;6183356;23;20043;-75
2021/09/10 02:18:02;;;;;;;3.10;3.00;;;;;;;14.05;86.32;99774.47;6181165;23;20016;-76
2021/09/10 02:20:59;;;;;;;5.20;4.70;;;;;;;13.89;86.43;99755.50;6175738;23;20036;-71
2021/09/10 02:23:25;;;;;;;3.60;3.25;;;;;;;13.95;86.37;99765.56;6182040;23;20092;-71
2021/09/10 02:25:51;;;;;;;4.03;3.72;;;;;;;13.95;86.46;99765.56;6182452;23;20395;-70
2021/09/10 02:28:17;;;;;;;4.07;3.80;;;;;;;13.95;86.34;99770.81;6182689;23;20100;-76
2021/09/10 02:30:46;;;;;;;3.33;3.17;;;;;;;13.91;86.32;99767.56;6180808;23;20021;-73
2021/09/10 02:33:13;;;;;;;7.65;4.05;;;;;;;13.91;86.32;99767.56;6181017;23;20078;-73
2021/09/10 02:38:54;;;;;;;3.72;3.30;;;;;;;13.79;86.47;99762.31;6179765;23;20076;-72
2021/09/10 02:41:40;;;;;;;7.72;4.85;;;;;;;13.86;86.11;99771.44;6180794;23;20017;-74
2021/09/10 02:44:26;;;;;;;4.13;3.80;;;;;;;13.93;86.19;99772.72;6160544;23;20025;-71
2021/09/10 02:47:37;;;;;;;3.08;2.88;;;;;;;13.98;85.92;99776.69;6161271;23;20023;-75
2021/09/10 02:50:29;;;;;;;2.75;2.55;;;;;;;13.99;85.76;99770.50;6181404;23;20036;-74
2021/09/10 02:53:16;;;;;;;3.67;3.47;;;;;;;13.95;85.65;99771.66;6182333;23;20369;-73
2021/09/10 02:56:03;;;;;;;3.55;3.30;;;;;;;13.84;86.15;99774.16;6182948;23;20028;-75
2021/09/10 02:58:51;;;;;;;12.35;3.60;;;;;;;13.82;86.49;99775.22;6182034;23;20067;-75
2021/09/10 03:05:19;;;;;;;3.58;3.38;;;;;;;13.81;86.77;99773.53;6182282;23;20050;-75
2021/09/10 03:08:05;;;;;;;6.82;4.72;;;;;;;13.85;86.57;99775.00;6182303;23;20103;-72
2021/09/10 03:10:51;;;;;;;9.98;3.45;;;;;;;13.91;86.32;99779.84;6181816;23;20112;-73
2021/09/10 03:13:37;;;;;;;5.60;5.10;;;;;;;13.98;85.97;99776.69;6181875;23;20021;-72
2021/09/10 03:16:23;;;;;;;10.10;4.00;;;;;;;14.04;85.81;99780.66;6159861;23;20017;-73
2021/09/10 03:19:09;;;;;;;3.30;3.10;;;;;;;14.02;85.54;99772.06;6182141;23;20479;-73
2021/09/10 03:21:55;;;;;;;4.70;4.40;;;;;;;14.10;85.73;99775.81;6181936;23;20024;-73
2021/09/10 03:24:41;;;;;;;4.35;3.63;;;;;;;14.20;85.31;99786.50;6180393;23;20032;-73
2021/09/10 03:27:27;;;;;;;3.22;3.00;;;;;;;14.28;84.77;99796.47;6181984;23;20021;-72
2021/09/10 03:30:13;;;;;;;3.45;3.22;;;;;;;14.36;84.71;99787.16;6181853;23;20025;-72
2021/09/10 03:32:59;;;;;;;8.82;3.72;;;;;;;14.42;84.25;99785.88;6182018;23;20071;-72
2021/09/10 03:35:45;;;;;;;4.53;4.15;;;;;;;14.46;84.28;99788.13;6179943;23;20025;-72
2021/09/10 03:38:31;;;;;;;2.97;2.83;;;;;;;14.50;84.15;99788.75;6181590;23;20016;-71
2021/09/10 03:41:17;;;;;;;5.07;4.10;;;;;;;14.49;84.22;99782.69;6180372;23;20020;-72
2021/09/10 03:44:03;;;;;;;3.97;3.75;;;;;;;14.58;83.98;99784.66;6182735;23;20028;-72
2021/09/10 03:46:49;;;;;;;10.50;5.93;;;;;;;14.69;83.57;99789.09;6181621;23;20025;-72
2021/09/10 03:49:37;;;;;;;3.95;3.72;;;;;;;14.73;82.93;99787.09;6181368;23;20025;-72
2021/09/10 03:52:22;;;;;;;3.42;3.15;;;;;;;14.82;82.80;99796.97;6180014;23;20423;-73
2021/09/10 03:55:09;;;;;;;3.17;2.90;;;;;;;14.87;82.86;99802.69;6180424;23;20017;-72
2021/09/10 03:57:54;;;;;;;12.18;4.88;;;;;;;14.93;82.63;99800.47;6181562;23;20060;-72
2021/09/10 04:00:40;;;;;;;2.90;2.70;;;;;;;15.22;81.20;99794.81;6181127;23;20356;-73
2021/09/10 04:03:28;;;;;;;3.40;3.20;;;;;;;15.47;80.19;99797.31;6181081;23;20497;-72
2021/09/10 04:06:15;;;;;;;3.95;3.65;;;;;;;16.07;77.80;99802.28;6181413;23;20299;-72
2021/09/10 04:09:01;;;;;;;4.35;3.05;;;;;;;16.08;77.53;99798.69;6180435;23;20017;-73
2021/09/10 04:11:47;;;;;;;4.25;3.85;;;;;;;16.62;75.56;99804.88;6180353;23;20021;-71
2021/09/10 04:14:32;;;;;;;3.67;3.42;;;;;;;16.49;76.29;99803.34;6181332;23;20419;-73
2021/09/10 04:17:19;;;;;;;2.53;2.42;;;;;;;16.14;77.92;99808.75;6185842;23;20029;-74
2021/09/10 04:20:05;;;;;;;4.78;3.90;;;;;;;15.89;79.35;99809.00;6187766;23;20356;-73
2021/09/10 04:22:51;;;;;;;4.45;4.05;;;;;;;15.94;78.91;99809.47;6181703;23;20108;-71
2021/09/10 04:25:37;;;;;;;5.28;3.70;;;;;;;16.09;78.54;99809.13;6159459;23;20099;-72
2021/09/10 04:28:47;;;;;;;3.75;3.50;;;;;;;15.85;78.55;99786.50;6183350;23;20071;-73
2021/09/10 04:31:49;;;;;;;3.33;3.17;;;;;;;16.02;78.91;99793.91;6181294;23;20021;-74
2021/09/10 04:34:36;;;;;;;3.10;2.90;;;;;;;16.16;78.58;99802.41;6180806;23;20468;-73
2021/09/10 04:37:23;;;;;;;7.90;3.17;;;;;;;16.22;78.30;99802.91;6181359;23;20048;-74
2021/09/10 04:40:09;;;;;;;6.75;4.28;;;;;;;16.25;78.39;99815.81;6159924;23;20025;-73
2021/09/10 04:42:55;;;;;;;5.90;3.25;;;;;;;16.16;78.76;99814.75;6181294;23;20309;-73
2021/09/10 04:45:40;;;;;;;3.10;2.90;;;;;;;16.14;78.85;99816.66;6180828;23;20013;-73
2021/09/10 04:48:26;;;;;;;2.65;2.53;;;;;;;16.11;79.05;99822.16;6183884;23;20100;-73
2021/09/10 04:51:12;;;;;;;3.58;3.28;;;;;;;16.13;79.32;99817.63;6183272;23;20029;-75
2021/09/10 04:54:00;;;;;;;3.63;3.42;;;;;;;16.14;79.08;99827.19;6181759;23;20052;-72
2021/09/10 04:56:46;;;;;;;4.00;3.70;;;;;;;16.20;78.90;99818.81;6181181;23;20012;-75
2021/09/10 04:59:32;;;;;;;2.42;2.28;;;;;;;16.20;79.18;99821.44;6182512;23;20021;-74
2021/09/10 05:02:18;;;;;;;8.57;3.58;;;;;;;16.34;78.89;99826.47;6183191;23;20013;-72
2021/09/10 05:05:05;;;;;;;2.78;2.67;;;;;;;16.40;78.31;99825.97;6183314;23;20031;-73
2021/09/10 05:07:51;;;;;;;3.10;2.90;;;;;;;16.59;77.47;99831.50;6182795;23;20032;-73
2021/09/10 05:10:37;;;;;;;3.35;3.15;;;;;;;16.53;77.65;99824.03;6182474;23;20025;-72
2021/09/10 05:13:23;;;;;;;3.67;3.38;;;;;;;16.61;76.97;99821.69;6178860;23;20396;-71
2021/09/10 05:16:09;;;;;;;3.17;2.97;;;;;;;16.86;75.38;99806.50;6180795;23;20023;-72
2021/09/10 05:18:54;;;;;;;2.60;2.50;;;;;;;16.85;76.17;99825.94;6181604;23;20338;-72
2021/09/10 05:21:40;;;;;;;7.13;2.00;;;;;;;16.88;75.92;99826.53;6182546;23;20025;-73
2021/09/10 05:24:26;;;;;;;3.15;2.95;;;;;;;17.21;74.95;99817.66;6182953;23;20100;-73
2021/09/10 05:27:12;;;;;;;4.07;3.22;;;;;;;17.31;74.34;99823.81;6181725;23;20076;-72
2021/09/10 05:29:58;;;;;;;3.33;3.13;;;;;;;17.36;74.15;99820.81;6181616;23;20496;-72
2021/09/10 05:32:24;;;;;;;3.80;3.60;;;;;;;17.49;73.79;99822.31;6182879;23;20021;-71
2021/09/10 05:34:50;;;;;;;4.40;3.95;;;;;;;17.81;72.31;99816.97;6181166;23;20016;-72
2021/09/10 05:37:17;;;;;;;2.92;2.72;;;;;;;18.09;71.71;99812.81;6180805;23;20013;-72
2021/09/10 05:39:42;;;;;;;2.92;2.72;;;;;;;18.23;70.41;99823.00;6180606;23;20068;-71
2021/09/10 05:42:08;;;;;;;2.88;2.67;;;;;;;18.20;70.98;99812.69;6182358;23;20021;-71
2021/09/10 05:44:34;;;;;;;2.30;2.20;;;;;;;18.29;70.24;99819.00;6155943;23;20527;-73
2021/09/10 05:47:00;;;;;;;3.28;3.08;;;;;;;18.87;68.40;99822.63;6155691;23;20021;-72
2021/09/10 05:49:27;;;;;;;2.80;2.70;;;;;;;18.92;67.95;99809.81;6156604;23;20025;-73
2021/09/10 05:51:53;;;;;;;6.47;3.22;;;;;;;19.30;66.43;99823.09;6181811;23;20025;-76
2021/09/10 05:54:19;;;;;;;4.60;3.22;;;;;;;19.64;65.12;99823.47;6182613;23;20479;-76
2021/09/10 05:56:46;;;;;;;5.20;3.50;;;;;;;19.22;66.89;99822.94;6180500;23;20017;-80
2021/09/10 05:59:12;;;;;;;2.83;2.63;;;;;;;19.22;66.38;99829.06;6181919;23;20036;-77
2021/09/10 06:01:38;;;;;;;3.33;3.00;;;;;;;18.99;67.54;99826.81;6180928;23;20017;-78
2021/09/10 06:04:04;;;;;;;5.50;3.75;;;;;;;19.38;66.05;99822.34;6179822;23;20046;-79
2021/09/10 06:06:30;;;;;;;3.13;2.33;;;;;;;19.06;67.28;99833.25;6181659;23;20425;-77
2021/09/10 06:08:56;;;;;;;2.97;2.78;;;;;;;19.36;66.56;99830.47;6180989;23;20024;-76
2021/09/10 06:11:22;;;;;;;2.92;2.72;;;;;;;19.66;65.50;99832.97;6179834;23;20083;-77
2021/09/10 06:13:48;;;;;;;3.75;3.55;;;;;;;19.75;65.12;99824.16;6179145;23;20104;-78
2021/09/10 06:16:14;;;;;;;3.50;3.20;;;;;;;19.65;65.60;99820.69;6181665;23;20021;-77
2021/09/10 06:18:40;;;;;;;4.93;3.22;;;;;;;19.71;64.61;99828.06;6181253;23;20063;-76
2021/09/10 06:21:06;;;;;;;2.70;2.50;;;;;;;20.31;62.76;99825.94;6179583;23;20068;-78
2021/09/10 06:23:32;;;;;;;3.53;3.33;;;;;;;20.16;63.23;99833.50;6180947;23;20017;-76
2021/09/10 06:25:58;;;;;;;8.88;2.83;;;;;;;20.54;61.75;99824.59;6180062;23;20028;-77
2021/09/10 06:28:24;;;;;;;2.13;2.03;;;;;;;19.56;64.40;99826.84;6181685;23;20017;-77
2021/09/10 06:30:51;;;;;;;3.38;2.92;;;;;;;19.86;62.52;99823.13;6154746;23;20134;-75
2021/09/10 06:33:16;;;;;;;2.78;2.58;;;;;;;20.15;61.60;99823.06;6181422;23;20020;-78
2021/09/10 06:35:42;;;;;;;2.65;2.45;;;;;;;20.57;59.72;99824.28;6180636;23;20028;-76
2021/09/10 06:38:08;;;;;;;2.25;2.13;;;;;;;20.86;58.32;99828.56;6181241;23;20043;-75
2021/09/10 06:40:34;;;;;;;1.45;1.35;;;;;;;19.88;62.43;99839.75;6181118;23;20448;-78
2021/09/10 06:43:00;;;;;;;2.35;2.13;;;;;;;20.25;61.55;99829.97;6180696;23;20075;-77
2021/09/10 06:45:26;;;;;;;2.92;2.63;;;;;;;20.38;60.90;99835.00;6179593;23;20035;-77
2021/09/10 06:47:52;;;;;;;3.38;3.03;;;;;;;20.63;59.42;99833.47;6181190;23;20025;-76
2021/09/10 06:50:18;;;;;;;4.82;2.03;;;;;;;20.26;60.95;99841.41;6179558;23;20024;-75
2021/09/10 06:52:44;;;;;;;2.80;2.58;;;;;;;20.68;59.16;99831.22;6180595;23;20017;-78
2021/09/10 06:55:10;;;;;;;2.30;2.20;;;;;;;21.72;55.93;99823.38;6179631;23;20360;-78
2021/09/10 06:57:36;;;;;;;1.98;1.88;;;;;;;21.80;55.69;99825.25;6180796;23;20113;-78
2021/09/10 07:00:04;;;;;;;1.90;1.80;;;;;;;20.45;58.52;99830.75;6179646;23;20056;-75
2021/09/10 07:02:30;;;;;;;2.88;2.67;;;;;;;21.16;57.37;99828.25;6178971;23;20020;-77
2021/09/10 07:04:55;;;;;;;2.25;2.15;;;;;;;21.41;56.90;99839.91;6181245;23;20021;-74
2021/09/10 07:07:22;;;;;;;2.42;2.05;;;;;;;21.33;55.57;99837.19;6181185;23;20024;-78
2021/09/10 07:09:48;;;;;;;4.32;2.75;;;;;;;20.63;57.32;99850.22;6180236;23;20025;-75
2021/09/10 07:12:14;;;;;;;3.72;2.63;;;;;;;20.72;56.93;99845.81;6178501;23;20026;-76
2021/09/10 07:14:40;;;;;;;2.40;2.20;;;;;;;20.87;57.30;99862.94;6180545;23;20017;-76
2021/09/10 07:17:06;;;;;;;2.72;2.53;;;;;;;20.53;58.22;99849.44;6179317;23;20027;-78
2021/09/10 07:19:32;;;;;;;3.38;2.58;;;;;;;20.25;58.84;99858.31;6154536;23;20021;-76
2021/09/10 07:21:58;;;;;;;7.18;2.17;;;;;;;19.85;60.12;99860.38;6179795;23;20539;-77
2021/09/10 07:24:24;;;;;;;2.63;2.47;;;;;;;19.55;61.76;99867.53;6131846;23;20017;-76
2021/09/10 07:26:51;;;;;;;2.67;2.35;;;;;;;19.51;61.62;99868.78;6180411;23;20461;-75
2021/09/10 07:29:20;;;;;;;2.60;2.50;;;;;;;19.16;63.27;99868.50;6180833;23;20143;-75
2021/09/10 07:31:47;;;;;;;7.65;2.53;;;;;;;19.32;63.87;99863.47;6178535;23;20111;-75
2021/09/10 07:34:13;;;;;;;4.50;2.38;;;;;;;19.26;63.29;99877.28;6180602;23;20032;-75
2021/09/10 07:36:39;;;;;;;7.65;2.40;;;;;;;19.16;62.62;99866.69;6180236;23;20013;-76
2021/09/10 07:39:05;;;;;;;3.95;2.05;;;;;;;19.15;63.12;99882.69;6179145;23;20500;-74
2021/09/10 07:41:31;;;;;;;2.05;1.95;;;;;;;18.98;63.79;99878.06;6180545;23;20013;-75
2021/09/10 07:43:57;;;;;;;2.33;2.22;;;;;;;18.97;63.93;99877.25;6178544;23;20021;-75
2021/09/10 07:46:23;;;;;;;2.65;2.38;;;;;;;18.75;64.35;99874.00;6178320;23;20063;-78
2021/09/10 07:48:49;;;;;;;3.45;1.88;;;;;;;18.57;65.48;99885.22;6180817;23;20021;-75
2021/09/10 07:51:16;;;;;;;4.55;2.80;;;;;;;18.61;65.56;99891.06;6186554;23;20020;-77
2021/09/10 07:53:41;;;;;;;2.45;2.35;;;;;;;18.70;65.62;99885.81;6191083;23;20559;-76
2021/09/10 07:56:08;;;;;;;3.40;2.58;;;;;;;18.93;65.72;99888.22;6191069;23;20096;-75
2021/09/10 07:58:34;;;;;;;6.05;2.80;;;;;;;18.96;65.33;99886.16;6185078;23;20488;-74
2021/09/10 08:00:59;;;;;;;2.08;1.98;;;;;;;19.04;64.69;99882.84;6181047;23;20021;-76
2021/09/10 08:03:27;;;;;;;1.35;1.35;;;;;;;19.00;64.41;99878.78;6180839;23;20099;-77
2021/09/10 08:05:54;;;;;;;2.28;2.17;;;;;;;18.98;64.56;99883.34;6178826;23;20464;-76
2021/09/10 08:08:20;;;;;;;1.83;1.73;;;;;;;19.10;64.15;99895.50;6156748;23;20017;-79
2021/09/10 08:10:47;;;;;;;2.00;1.90;;;;;;;19.45;62.88;99879.97;6180894;23;20021;-78
2021/09/10 08:13:13;;;;;;;1.98;1.88;;;;;;;19.05;63.56;99895.06;6177992;23;20449;-76
2021/09/10 08:15:39;;;;;;;1.95;1.85;;;;;;;19.06;63.55;99892.31;6180105;23;20013;-78
2021/09/10 08:18:05;;;;;;;2.30;2.20;;;;;;;19.19;64.01;99899.97;6178959;23;20021;-77
2021/09/10 08:20:31;;;;;;;2.55;2.35;;;;;;;18.96;64.32;99902.03;6180127;23;20013;-78
2021/09/10 08:22:57;;;;;;;1.83;1.73;;;;;;;18.84;64.86;99897.00;6179640;23;20024;-76
2021/09/10 08:25:23;;;;;;;1.25;1.15;;;;;;;18.84;64.67;99907.56;6180371;23;20019;-77
2021/09/10 08:27:49;;;;;;;2.30;2.20;;;;;;;19.12;64.19;99906.78;6178489;23;20024;-77
2021/09/10 08:30:15;;;;;;;2.83;2.63;;;;;;;19.32;63.36;99911.13;6177191;23;20031;-77
2021/09/10 08:32:41;;;;;;;2.10;2.00;;;;;;;19.14;63.98;99907.50;6180267;23;20427;-77
2021/09/10 08:35:08;;;;;;;2.72;2.60;;;;;;;19.21;64.33;99905.97;6180890;23;20040;-76
2021/09/10 08:37:34;;;;;;;2.17;2.08;;;;;;;19.49;63.22;99910.50;6179631;23;20048;-78
2021/09/10 08:40:01;;;;;;;2.30;2.20;;;;;;;19.37;63.36;99905.44;6179687;23;20024;-77
2021/09/10 08:42:40;;;;;;;3.40;2.67;;;;;;;19.17;64.19;99907.22;6179235;23;20035;-81
2021/09/10 08:45:11;;;;;;;1.88;1.77;;;;;;;18.89;65.35;99911.47;6180934;23;20028;-78
2021/09/10 08:47:38;;;;;;;4.55;2.75;;;;;;;19.00;64.92;99908.72;6178997;23;20033;-75
2021/09/10 08:50:05;;;;;;;3.25;3.03;;;;;;;18.98;65.47;99917.75;6179912;23;20028;-77
2021/09/10 08:52:31;;;;;;;2.60;2.20;;;;;;;19.11;65.14;99905.94;6178360;23;20096;-79
2021/09/10 08:54:57;;;;;;;2.60;2.13;;;;;;;19.19;65.05;99916.69;6178442;23;20017;-76
2021/09/10 08:57:26;;;;;;;2.92;2.60;;;;;;;19.15;65.22;99912.66;6178643;23;20029;-77
2021/09/10 09:00:07;;;;;;;4.18;2.53;;;;;;;19.32;64.68;99910.28;6151288;23;20025;-75
2021/09/10 09:02:33;;;;;;;18.08;2.80;;;;;;;19.26;64.70;99917.00;6179938;23;20028;-75
2021/09/10 09:04:59;;;;;;;2.78;2.58;;;;;;;19.18;64.79;99908.88;6178101;23;20024;-75
2021/09/10 09:07:27;;;;;;;2.25;2.15;;;;;;;19.15;65.36;99922.41;6179733;23;20021;-81
2021/09/10 09:09:58;;;;;;;2.33;2.22;;;;;;;19.29;65.23;99915.88;6178234;23;20021;-80
2021/09/10 09:12:29;;;;;;;2.15;2.05;;;;;;;19.27;64.83;99916.84;6180174;23;20036;-80
2021/09/10 09:15:06;;;;;;;4.88;2.13;;;;;;;19.44;64.51;99912.69;6179943;23;20021;-79
2021/09/10 09:17:37;;;;;;;2.35;1.95;;;;;;;19.40;65.04;99905.16;6180205;23;20542;-80
2021/09/10 09:20:12;;;;;;;2.60;2.50;;;;;;;19.30;64.87;99907.81;6180197;23;20020;-82
2021/09/10 09:22:52;;;;;;;1.60;1.50;;;;;;;19.43;64.67;99916.34;6180331;23;20016;-80
2021/09/10 09:25:18;;;;;;;2.43;2.23;;;;;;;19.72;63.65;99911.88;6180609;23;20017;-78
2021/09/10 09:27:44;;;;;;;1.75;1.63;;;;;;;19.77;63.86;99917.56;6178519;23;20338;-80
2021/09/10 09:30:11;;;;;;;2.65;2.55;;;;;;;19.88;62.99;99916.59;6180193;23;20028;-81
2021/09/10 09:32:49;;;;;;;2.63;2.50;;;;;;;20.03;63.35;99925.75;6179350;23;20021;-78
2021/09/10 09:35:18;;;;;;;2.00;1.90;;;;;;;19.65;63.71;99909.91;6182617;23;20017;-81
2021/09/10 09:37:44;;;;;;;2.97;2.78;;;;;;;19.62;63.85;99926.94;6180806;23;20460;-79
2021/09/10 09:40:10;;;;;;;3.13;2.83;;;;;;;19.66;64.09;99923.03;6181217;23;20162;-80
2021/09/10 09:42:37;;;;;;;2.42;2.33;;;;;;;19.75;63.80;99927.50;6185735;23;20024;-80
2021/09/10 09:45:17;;;;;;;1.33;1.33;;;;;;;19.76;63.38;99917.72;6182545;23;20203;-78
2021/09/10 09:47:43;;;;;;;1.90;1.80;;;;;;;19.52;63.08;99926.09;6181870;23;20020;-80
2021/09/10 09:50:11;;;;;;;1.60;1.50;;;;;;;19.62;61.90;99936.69;6182117;23;20028;-83
2021/09/10 09:52:37;;;;;;;1.63;1.60;;;;;;;19.85;61.67;99926.63;6182551;23;20020;-81
2021/09/10 09:55:04;;;;;;;13.40;2.65;;;;;;;20.32;59.59;99936.31;6180260;23;20104;-80
2021/09/10 09:57:31;;;;;;;3.70;1.98;;;;;;;20.30;60.01;99935.66;6155381;23;20028;-81
2021/09/10 09:59:57;;;;;;;1.92;1.83;;;;;;;20.04;60.47;99937.22;6179335;23;20427;-79
2021/09/10 10:02:23;;;;;;;6.95;1.90;;;;;;;20.14;59.77;99933.56;6180960;23;20040;-81
2021/09/10 10:04:50;;;;;;;1.98;1.88;;;;;;;19.83;60.32;99929.41;6181587;23;20048;-81
2021/09/10 10:07:17;;;;;;;1.90;1.80;;;;;;;20.01;59.88;99938.34;6182032;23;20017;-80
2021/09/10 10:09:43;;;;;;;7.60;2.10;;;;;;;20.29;59.00;99935.81;6132236;23;20103;-81
2021/09/10 10:12:36;;;;;;;1.42;1.38;;;;;;;19.86;60.03;99933.63;6180028;23;20017;-80
2021/09/10 10:15:21;;;;;;;5.75;2.72;;;;;;;20.00;59.35;99935.81;6181702;23;20112;-80
2021/09/10 10:17:48;;;;;;;1.50;1.40;;;;;;;19.92;59.87;99933.06;6181346;23;20045;-79
2021/09/10 10:20:52;;;;;;;1.10;1.10;;;;;;;19.70;61.04;99942.13;6187009;23;20036;-77
2021/09/10 10:23:46;;;;;;;5.20;1.85;;;;;;;19.92;60.10;99941.84;6182722;23;20017;-80
2021/09/10 10:26:14;;;;;;;1.90;1.80;;;;;;;19.83;60.28;99941.84;6182420;23;20027;-81
2021/09/10 10:28:50;;;;;;;2.60;2.05;;;;;;;19.82;60.51;99945.47;6131360;23;20016;-80
2021/09/10 10:31:56;;;;;;;2.10;1.92;;;;;;;20.32;59.13;99944.28;6180524;23;20051;-82
2021/09/10 10:34:34;;;;;;;1.90;1.60;;;;;;;20.94;57.52;99937.50;6182064;23;20100;-81
2021/09/10 10:37:00;;;;;;;4.60;2.58;;;;;;;21.09;56.76;99922.72;6180230;23;20025;-80
2021/09/10 10:39:28;;;;;;;1.42;1.33;;;;;;;20.78;57.39;99931.00;6181594;23;20112;-79
2021/09/10 10:41:57;;;;;;;1.92;1.83;;;;;;;20.73;56.63;99937.72;6180150;23;20083;-80
2021/09/10 10:44:32;;;;;;;1.35;1.35;;;;;;;20.89;55.66;99926.47;6181740;23;20177;-81
2021/09/10 10:47:05;;;;;;;1.60;1.50;;;;;;;20.82;55.23;99938.66;6185746;23;20095;-81
2021/09/10 10:49:33;;;;;;;1.63;1.58;;;;;;;20.91;55.69;99924.53;6192811;23;20021;-79
2021/09/10 10:51:59;;;;;;;15.38;2.28;;;;;;;20.59;56.08;99928.44;6168656;23;20075;-77
2021/09/10 10:54:29;;;;;;;1.45;1.45;;;;;;;20.97;55.60;99931.88;6187374;23;20017;-81
2021/09/10 10:56:55;;;;;;;2.30;2.20;;;;;;;21.25;55.33;99936.22;6130511;23;20013;-80
2021/09/10 10:59:28;;;;;;;5.40;1.90;;;;;;;21.04;56.26;99928.47;6181854;23;20353;-80
2021/09/10 11:02:21;;;;;;;1.92;0.85;;;;;;;20.84;54.87;99936.72;6180804;23;20017;-80
2021/09/10 11:04:59;;;;;;;1.73;1.63;;;;;;;20.81;54.93;99932.50;6180596;23;20151;-78
2021/09/10 11:07:26;;;;;;;1.35;1.35;;;;;;;20.93;54.48;99935.81;6181293;23;20590;-80
2021/09/10 11:10:05;;;;;;;9.02;2.40;;;;;;;21.46;53.31;99939.44;6180717;23;20021;-79
2021/09/10 11:12:31;;;;;;;1.75;1.67;;;;;;;21.75;52.33;99936.53;6179527;23;20461;-79
2021/09/10 11:14:59;;;;;;;1.67;1.58;;;;;;;21.25;53.73;99941.50;6154340;23;20021;-78
2021/09/10 11:17:28;;;;;;;1.02;1.02;;;;;;;20.97;54.42;99945.16;6179383;23;20017;-80
2021/09/10 11:19:58;;;;;;;1.70;1.60;;;;;;;20.93;54.91;99941.13;6179490;23;20016;-80
2021/09/10 11:22:25;;;;;;;1.17;1.17;;;;;;;20.65;55.23;99943.75;6175223;23;20021;-80
2021/09/10 11:25:11;;;;;;;1.63;1.52;;;;;;;20.63;55.61;99945.72;6175033;23;20025;-82
2021/09/10 11:27:40;;;;;;;1.40;1.30;;;;;;;20.54;56.19;99948.41;6181119;23;20710;-79
2021/09/10 11:30:08;;;;;;;3.30;1.55;;;;;;;20.48;55.98;99941.88;6188470;23;20029;-80
2021/09/10 11:32:34;;;;;;;1.70;1.60;;;;;;;20.58;55.94;99950.63;6183161;23;20017;-80
2021/09/10 11:35:00;;;;;;;13.55;1.95;;;;;;;20.62;56.26;99949.34;6130615;23;20024;-79
2021/09/10 11:37:29;;;;;;;1.88;1.77;;;;;;;20.93;56.26;99949.09;6180967;23;20420;-80
2021/09/10 11:39:55;;;;;;;1.70;1.60;;;;;;;20.94;55.83;99954.22;6181084;23;20099;-79
2021/09/10 11:42:35;;;;;;;1.63;1.58;;;;;;;20.91;55.95;99953.72;6179478;23;20016;-81
2021/09/10 11:45:13;;;;;;;2.60;1.55;;;;;;;20.78;56.00;99948.72;6156693;23;20024;-81
2021/09/10 11:47:40;;;;;;;2.25;2.15;;;;;;;20.77;55.86;99950.56;6180585;23;20021;-82
2021/09/10 11:50:09;;;;;;;1.90;1.80;;;;;;;21.06;55.00;99963.69;6134328;23;20112;-76
2021/09/10 11:52:39;;;;;;;1.55;1.45;;;;;;;21.12;54.63;99963.13;6180715;23;20146;-77
2021/09/10 11:55:12;;;;;;;2.15;1.45;;;;;;;20.92;55.21;99966.84;6180416;23;20017;-76
2021/09/10 11:57:39;;;;;;;4.10;2.22;;;;;;;20.89;55.45;99955.66;6178126;23;20017;-75
2021/09/10 12:00:10;;;;;;;1.73;1.63;;;;;;;20.83;56.44;99957.09;6178611;23;20107;-78
2021/09/10 16:44:56;;;;;;;2.03;1.88;;;;;;;15.48;86.80;100177.91;6273211;22;20118;-77
2021/09/10 16:47:22;;;;;;;6.28;2.33;;;;;;;15.46;86.59;100188.53;6273889;22;20090;-74